createdAt,value
2022-10-24T00:00:56.630Z,57.78
2022-10-24T00:03:23.158Z,57.62
2022-10-24T00:05:49.681Z,57.89
2022-10-24T00:08:17.290Z,57.57
2022-10-24T00:10:45.973Z,56.89
2022-10-24T00:13:14.106Z,57.05
2022-10-24T00:15:43.345Z,57.96
2022-10-24T00:18:09.872Z,57.47
2022-10-24T00:20:36.570Z,57.39
2022-10-24T00:23:03.088Z,57.19
2022-10-24T00:25:29.721Z,57.11
2022-10-24T00:27:56.249Z,56.88
2022-10-24T00:30:22.823Z,56.84
2022-10-24T00:32:51.188Z,56.85
2022-10-24T00:35:17.930Z,56.86
2022-10-24T00:37:44.640Z,57.13
2022-10-24T00:40:15.831Z,56.85
2022-10-24T00:42:42.444Z,57.30
2022-10-24T00:46:00.412Z,56.41
2022-10-24T00:48:33.678Z,57.15
2022-10-24T00:51:29.754Z,57.71
2022-10-24T00:54:08.717Z,57.92
2022-10-24T00:56:41.028Z,57.84
2022-10-24T00:59:10.532Z,57.97
2022-10-24T01:01:38.271Z,58.31
2022-10-24T01:04:04.748Z,58.58
2022-10-24T01:06:46.949Z,59.38
2022-10-24T01:09:38.158Z,60.00
2022-10-24T01:12:26.595Z,60.36
2022-10-24T01:15:07.268Z,61.08
2022-10-24T01:17:57.741Z,61.42
2022-10-24T01:20:45.504Z,62.49
2022-10-24T01:23:26.592Z,61.69
2022-10-24T01:26:07.054Z,62.28
2022-10-24T01:28:39.977Z,63.64
2022-10-24T01:31:12.621Z,64.16
2022-10-24T01:33:49.322Z,64.73
2022-10-24T01:36:30.619Z,65.61
2022-10-24T01:39:02.342Z,65.13
2022-10-24T01:41:31.079Z,65.12
2022-10-24T01:44:09.793Z,65.36
2022-10-24T01:46:42.316Z,65.98
2022-10-24T01:49:20.625Z,66.81
2022-10-24T01:51:51.040Z,66.29
2022-10-24T01:54:17.958Z,66.24
2022-10-24T01:56:45.067Z,66.43
2022-10-24T01:59:26.605Z,67.35
2022-10-24T02:02:06.646Z,66.98
2022-10-24T02:04:36.069Z,67.07
2022-10-24T02:07:07.847Z,67.29
2022-10-24T02:09:37.981Z,67.32
2022-10-24T02:12:08.727Z,67.34
2022-10-24T02:14:40.782Z,67.44
2022-10-24T02:17:07.552Z,67.17
2022-10-24T02:19:34.908Z,67.32
2022-10-24T02:22:10.749Z,67.33
2022-10-24T02:25:00.372Z,67.40
2022-10-24T02:27:35.362Z,67.63
2022-10-24T02:30:14.081Z,67.57
2022-10-24T02:32:44.933Z,67.54
2022-10-24T02:35:14.632Z,67.60
2022-10-24T02:37:49.098Z,67.93
2022-10-24T02:40:18.237Z,67.87
2022-10-24T02:42:47.783Z,67.50
2022-10-24T02:45:16.264Z,67.63
2022-10-24T02:47:45.250Z,67.32
2022-10-24T02:50:13.547Z,67.37
2022-10-24T02:52:43.062Z,67.62
2022-10-24T02:55:10.710Z,67.64
2022-10-24T02:57:37.611Z,67.49
2022-10-24T03:00:05.577Z,67.77
2022-10-24T03:02:32.091Z,67.63
2022-10-24T03:04:58.802Z,67.97
2022-10-24T03:07:25.338Z,67.98
2022-10-24T03:09:51.914Z,67.86
2022-10-24T03:12:18.777Z,67.81
2022-10-24T03:14:45.319Z,68.06
2022-10-24T03:17:12.078Z,68.13
2022-10-24T03:19:38.580Z,68.28
2022-10-24T03:22:05.106Z,68.37
2022-10-24T03:24:43.781Z,68.23
2022-10-24T03:27:11.424Z,68.19
2022-10-24T03:29:37.948Z,68.54
2022-10-24T03:32:04.570Z,68.30
2022-10-24T03:34:31.221Z,68.32
2022-10-24T03:36:57.758Z,68.41
2022-10-24T03:39:24.299Z,68.71
2022-10-24T03:41:50.811Z,68.85
2022-10-24T03:44:17.447Z,68.81
2022-10-24T03:46:44.010Z,68.69
2022-10-24T03:49:10.574Z,68.71
2022-10-24T03:51:37.109Z,68.74
2022-10-24T03:54:03.960Z,68.95
2022-10-24T03:56:30.564Z,68.99
2022-10-24T03:58:57.069Z,68.90
2022-10-24T04:01:23.699Z,69.11
2022-10-24T04:03:50.496Z,69.09
2022-10-24T04:06:16.988Z,68.93
2022-10-24T04:08:43.528Z,68.97
2022-10-24T04:11:10.380Z,69.13
2022-10-24T04:13:37.013Z,69.17
2022-10-24T04:16:03.514Z,69.07
2022-10-24T04:18:33.099Z,68.94
2022-10-24T04:20:59.680Z,68.96
2022-10-24T04:23:26.230Z,69.29
2022-10-24T04:25:53.214Z,69.10
2022-10-24T04:28:19.813Z,69.31
2022-10-24T04:30:46.372Z,69.44
2022-10-24T04:33:12.926Z,69.51
2022-10-24T04:35:39.443Z,69.55
2022-10-24T04:38:05.988Z,69.64
2022-10-24T04:40:32.567Z,69.60
2022-10-24T04:42:59.066Z,69.80
2022-10-24T04:45:25.567Z,69.68
2022-10-24T04:47:52.108Z,69.77
2022-10-24T04:50:18.761Z,69.74
2022-10-24T04:52:45.231Z,69.76
2022-10-24T04:55:12.192Z,69.89
2022-10-24T04:57:38.961Z,69.92
2022-10-24T05:00:06.489Z,69.91
2022-10-24T05:02:33.033Z,69.98
2022-10-24T05:04:59.653Z,70.01
2022-10-24T05:07:26.739Z,69.99
2022-10-24T05:09:53.211Z,69.99
2022-10-24T05:15:07.751Z,69.92
2022-10-24T05:17:34.296Z,69.65
2022-10-24T05:20:01.165Z,70.09
2022-10-24T05:22:27.819Z,70.04
2022-10-24T05:24:54.411Z,69.92
2022-10-24T05:27:21.086Z,69.94
2022-10-24T05:29:47.565Z,69.82
2022-10-24T05:32:14.016Z,70.02
2022-10-24T05:34:40.669Z,70.21
2022-10-24T05:37:07.232Z,70.15
2022-10-24T05:39:33.860Z,70.03
2022-10-24T05:42:00.340Z,70.12
2022-10-24T05:44:26.935Z,70.37
2022-10-24T05:46:53.710Z,70.26
2022-10-24T05:49:20.158Z,70.28
2022-10-24T05:51:46.796Z,70.37
2022-10-24T05:56:59.730Z,70.40
2022-10-24T05:59:26.201Z,70.55
2022-10-24T06:01:52.907Z,70.58
2022-10-24T06:04:19.424Z,70.53
2022-10-24T06:06:46.039Z,70.47
2022-10-24T06:09:13.123Z,70.71
2022-10-24T06:11:39.851Z,70.51
2022-10-24T06:14:06.407Z,70.72
2022-10-24T06:16:32.911Z,70.67
2022-10-24T06:19:00.271Z,70.46
2022-10-24T06:21:27.225Z,70.62
2022-10-24T06:23:53.747Z,70.52
2022-10-24T06:26:23.917Z,70.61
2022-10-24T06:28:50.875Z,70.59
2022-10-24T06:31:17.355Z,70.49
2022-10-24T06:33:43.929Z,70.24
2022-10-24T06:36:11.180Z,70.16
2022-10-24T06:38:37.812Z,70.12
2022-10-24T06:41:09.423Z,70.07
2022-10-24T06:43:36.987Z,70.33
2022-10-24T06:46:11.634Z,70.09
2022-10-24T06:48:38.542Z,70.44
2022-10-24T06:51:06.120Z,70.33
2022-10-24T06:53:33.353Z,70.38
2022-10-24T06:56:02.379Z,70.15
2022-10-24T06:58:33.195Z,70.30
2022-10-24T07:01:00.170Z,70.25
2022-10-24T07:03:26.948Z,70.21
2022-10-24T07:05:53.440Z,70.37
2022-10-24T07:08:20.008Z,70.05
2022-10-24T07:10:46.518Z,70.21
2022-10-24T07:13:13.053Z,70.35
2022-10-24T07:15:39.567Z,70.25
2022-10-24T07:18:06.072Z,70.13
2022-10-24T07:20:32.594Z,70.18
2022-10-24T07:22:59.348Z,70.44
2022-10-24T07:25:25.813Z,70.10
2022-10-24T07:27:52.323Z,70.31
2022-10-24T07:30:19.068Z,70.16
2022-10-24T07:32:45.747Z,69.82
2022-10-24T07:35:13.387Z,69.80
2022-10-24T07:37:40.213Z,69.96
2022-10-24T07:40:07.363Z,70.15
2022-10-24T07:42:33.848Z,70.05
2022-10-24T07:45:00.472Z,70.24
2022-10-24T07:47:27.124Z,70.05
2022-10-24T07:49:53.617Z,70.14
2022-10-24T07:52:20.089Z,70.21
2022-10-24T07:54:46.570Z,70.22
2022-10-24T07:57:13.155Z,70.25
2022-10-24T07:59:43.035Z,70.21
2022-10-24T08:02:11.991Z,69.99
2022-10-24T08:04:39.069Z,70.26
2022-10-24T08:07:06.545Z,70.31
2022-10-24T08:09:37.651Z,70.00
2022-10-24T08:12:04.664Z,70.19
2022-10-24T08:14:31.244Z,70.01
2022-10-24T08:16:57.788Z,70.15
2022-10-24T08:21:51.855Z,70.29
2022-10-24T08:24:18.595Z,70.21
2022-10-24T08:26:45.092Z,70.22
2022-10-24T08:29:11.566Z,70.23
2022-10-24T08:31:38.411Z,70.16
2022-10-24T08:34:05.068Z,70.03
2022-10-24T08:36:35.407Z,70.13
2022-10-24T08:39:03.624Z,70.45
2022-10-24T08:41:38.084Z,69.92
2022-10-24T08:44:16.567Z,70.32
2022-10-24T08:46:50.991Z,70.38
2022-10-24T08:49:46.419Z,70.48
2022-10-24T08:52:26.871Z,70.32
2022-10-24T08:54:56.162Z,70.83
2022-10-24T08:57:27.957Z,70.82
2022-10-24T08:59:59.827Z,70.72
2022-10-24T09:02:30.849Z,70.92
2022-10-24T09:05:01.373Z,70.62
2022-10-24T09:07:27.999Z,70.74
2022-10-24T09:10:21.245Z,70.48
2022-10-24T09:12:47.984Z,70.80
2022-10-24T09:15:28.337Z,70.28
2022-10-24T09:17:57.020Z,70.57
2022-10-24T09:20:32.113Z,69.99
2022-10-24T09:23:02.186Z,70.71
2022-10-24T09:25:33.021Z,70.73
2022-10-24T09:28:02.601Z,70.52
2022-10-24T09:30:33.141Z,70.79
2022-10-24T09:33:14.614Z,70.62
2022-10-24T09:35:42.789Z,71.11
2022-10-24T09:38:32.528Z,70.56
2022-10-24T09:41:06.110Z,70.91
2022-10-24T09:43:44.454Z,71.46
2022-10-24T09:46:15.403Z,71.32
2022-10-24T09:48:41.851Z,71.34
2022-10-24T09:51:08.956Z,71.30
2022-10-24T09:53:38.424Z,71.30
2022-10-24T09:56:10.212Z,71.09
2022-10-24T09:58:37.181Z,71.14
2022-10-24T10:01:26.289Z,70.99
2022-10-24T10:04:09.350Z,70.37
2022-10-24T10:06:44.386Z,69.99
2022-10-24T10:09:26.523Z,69.68
2022-10-24T10:12:05.046Z,70.20
2022-10-24T10:14:31.648Z,70.37
2022-10-24T10:17:03.376Z,70.49
2022-10-24T10:19:35.599Z,69.88
2022-10-24T10:22:20.177Z,69.40
2022-10-24T10:24:47.130Z,69.96
2022-10-24T10:27:38.795Z,68.92
2022-10-24T10:30:14.428Z,69.05
2022-10-24T10:32:59.889Z,69.69
2022-10-24T10:35:31.067Z,69.95
2022-10-24T10:38:08.876Z,68.50
2022-10-24T10:40:49.510Z,68.39
2022-10-24T10:43:32.382Z,68.17
2022-10-24T10:46:18.211Z,68.26
2022-10-24T10:49:14.040Z,68.21
2022-10-24T10:51:47.648Z,68.61
2022-10-24T10:54:54.527Z,68.24
2022-10-24T10:57:29.126Z,68.13
2022-10-24T11:00:19.744Z,68.69
2022-10-24T11:03:22.986Z,68.26
2022-10-24T11:06:08.082Z,69.59
2022-10-24T11:08:42.319Z,69.07
2022-10-24T11:11:16.247Z,69.05
2022-10-24T11:13:55.000Z,68.97
2022-10-24T11:16:28.497Z,68.77
2022-10-24T11:19:03.998Z,68.69
2022-10-24T11:21:33.816Z,69.15
2022-10-24T11:24:13.848Z,68.62
2022-10-24T11:26:45.347Z,68.81
2022-10-24T11:29:29.947Z,68.03
2022-10-24T11:32:01.283Z,68.82
2022-10-24T11:34:47.004Z,68.17
2022-10-24T11:37:36.076Z,67.50
2022-10-24T11:40:14.810Z,67.69
2022-10-24T11:43:06.306Z,67.65
2022-10-24T11:45:42.015Z,68.28
2022-10-24T11:48:34.218Z,67.13
2022-10-24T11:51:19.496Z,67.94
2022-10-24T11:53:52.892Z,67.87
2022-10-24T11:56:43.128Z,67.90
2022-10-24T11:59:16.627Z,67.91
2022-10-24T12:01:54.953Z,68.03
2022-10-24T12:04:53.777Z,68.15
2022-10-24T12:07:42.443Z,68.59
2022-10-24T12:10:45.696Z,68.80
2022-10-24T12:13:15.111Z,68.43
2022-10-24T12:16:11.895Z,68.10
2022-10-24T12:18:52.172Z,67.91
2022-10-24T12:21:25.958Z,68.28
2022-10-24T12:24:00.816Z,68.61
2022-10-24T12:26:29.556Z,68.51
2022-10-24T12:28:58.347Z,68.53
2022-10-24T12:31:37.437Z,69.39
2022-10-24T12:34:16.149Z,69.06
2022-10-24T12:37:01.228Z,69.51
2022-10-24T12:39:33.842Z,69.44
2022-10-24T12:42:00.583Z,70.09
2022-10-24T12:44:33.167Z,70.04
2022-10-24T12:47:01.575Z,70.19
2022-10-24T12:49:32.784Z,70.63
2022-10-24T12:52:31.284Z,70.64
2022-10-24T12:54:58.959Z,70.99
2022-10-24T12:57:28.662Z,71.28
2022-10-24T13:00:01.275Z,70.96
2022-10-24T13:02:52.281Z,70.85
2022-10-24T13:05:18.838Z,71.20
2022-10-24T13:08:21.771Z,71.73
2022-10-24T13:10:53.922Z,71.41
2022-10-24T13:13:48.100Z,71.58
2022-10-24T13:16:22.347Z,71.68
2022-10-24T13:19:18.643Z,71.87
2022-10-24T13:21:59.153Z,72.53
2022-10-24T13:24:38.560Z,72.33
2022-10-24T13:27:12.621Z,72.39
2022-10-24T13:29:39.624Z,72.38
2022-10-24T13:32:06.058Z,72.51
2022-10-24T13:34:42.661Z,72.48
2022-10-24T13:37:34.798Z,72.36
2022-10-24T13:40:07.136Z,72.56
2022-10-24T13:42:55.443Z,72.51
2022-10-24T13:45:21.968Z,72.40
2022-10-24T13:47:57.924Z,72.24
2022-10-24T13:50:29.711Z,71.90
2022-10-24T13:53:03.496Z,71.61
2022-10-24T13:55:37.835Z,71.67
2022-10-24T13:58:12.808Z,71.67
2022-10-24T14:00:42.054Z,71.90
2022-10-24T14:03:17.402Z,71.64
2022-10-24T14:05:51.080Z,71.31
2022-10-24T14:08:24.780Z,71.20
2022-10-24T14:10:52.992Z,71.38
2022-10-24T14:13:19.976Z,71.23
2022-10-24T14:15:52.071Z,71.11
2022-10-24T14:18:20.477Z,71.25
2022-10-24T14:20:58.621Z,71.11
2022-10-24T14:23:27.136Z,71.28
2022-10-24T14:26:03.312Z,71.32
2022-10-24T14:28:33.720Z,71.55
2022-10-24T14:31:02.538Z,71.38
2022-10-24T14:33:31.288Z,71.22
2022-10-24T14:36:01.953Z,71.23
2022-10-24T14:38:29.068Z,71.44
2022-10-24T14:41:07.842Z,71.49
2022-10-24T14:43:37.064Z,71.58
2022-10-24T14:46:13.636Z,71.22
2022-10-24T14:48:45.802Z,71.52
2022-10-24T14:51:24.509Z,71.35
2022-10-24T14:53:51.326Z,71.52
2022-10-24T14:56:28.203Z,71.38
2022-10-24T14:58:56.918Z,71.23
2022-10-24T15:01:24.677Z,71.28
2022-10-24T15:04:05.590Z,70.73
2022-10-24T15:06:43.451Z,70.41
2022-10-24T15:09:13.106Z,70.80
2022-10-24T15:11:42.249Z,71.15
2022-10-24T15:14:36.440Z,70.60
2022-10-24T15:17:27.104Z,71.15
2022-10-24T15:19:59.729Z,71.07
2022-10-24T15:22:36.023Z,70.58
2022-10-24T15:25:07.364Z,71.25
2022-10-24T15:27:42.435Z,70.98
2022-10-24T15:30:17.372Z,70.80
2022-10-24T15:32:44.841Z,71.24
2022-10-24T15:35:12.635Z,71.23
2022-10-24T15:37:39.666Z,71.08
2022-10-24T15:40:22.145Z,70.16
2022-10-24T15:42:48.794Z,70.92
2022-10-24T15:45:17.336Z,70.78
2022-10-24T15:47:43.968Z,70.78
2022-10-24T15:50:15.486Z,70.01
2022-10-24T15:52:42.829Z,70.60
2022-10-24T15:55:18.276Z,69.99
2022-10-24T15:57:44.790Z,70.53
2022-10-24T16:00:11.847Z,70.59
2022-10-24T16:02:40.158Z,70.53
2022-10-24T16:05:07.200Z,70.64
2022-10-24T16:07:33.702Z,70.86
2022-10-24T16:10:00.338Z,70.87
2022-10-24T16:12:26.963Z,70.97
2022-10-24T16:14:53.521Z,70.89
2022-10-24T16:17:20.160Z,70.89
2022-10-24T16:19:46.711Z,70.97
2022-10-24T16:22:13.264Z,71.12
2022-10-24T16:24:39.741Z,71.32
2022-10-24T16:27:06.253Z,71.38
2022-10-24T16:29:32.857Z,71.19
2022-10-24T16:31:59.360Z,71.31
2022-10-24T16:34:25.985Z,71.31
2022-10-24T16:36:54.289Z,71.45
2022-10-24T16:39:20.832Z,71.23
2022-10-24T16:41:47.330Z,71.22
2022-10-24T16:44:14.255Z,71.20
2022-10-24T16:46:40.742Z,71.23
2022-10-24T16:49:07.326Z,71.33
2022-10-24T16:51:33.833Z,71.41
2022-10-24T16:54:01.808Z,71.30
2022-10-24T16:56:29.065Z,71.33
2022-10-24T16:58:55.583Z,71.49
2022-10-24T17:01:22.458Z,71.35
2022-10-24T17:03:49.283Z,71.37
2022-10-24T17:06:15.777Z,71.13
2022-10-24T17:08:42.267Z,71.24
2022-10-24T17:11:25.742Z,71.15
2022-10-24T17:13:55.638Z,71.19
2022-10-24T17:16:22.346Z,70.97
2022-10-24T17:19:05.112Z,71.00
2022-10-24T17:21:38.148Z,70.96
2022-10-24T17:24:05.024Z,70.95
2022-10-24T17:26:31.651Z,70.92
2022-10-24T17:28:58.264Z,70.80
2022-10-24T17:31:24.853Z,71.08
2022-10-24T17:33:51.661Z,70.94
2022-10-24T17:36:26.284Z,70.27
2022-10-24T17:39:07.621Z,70.11
2022-10-24T17:41:38.019Z,70.72
2022-10-24T17:44:04.944Z,70.82
2022-10-24T17:46:31.637Z,70.63
2022-10-24T17:48:58.142Z,70.96
2022-10-24T17:51:27.046Z,70.80
2022-10-24T17:53:53.675Z,70.90
2022-10-24T17:56:23.143Z,71.09
2022-10-24T17:58:52.208Z,71.18
2022-10-24T18:01:18.952Z,71.19
2022-10-24T18:03:45.486Z,71.28
2022-10-24T18:06:18.318Z,71.01
2022-10-24T18:08:44.805Z,71.01
2022-10-24T18:11:11.391Z,70.94
2022-10-24T18:13:40.402Z,70.62
2022-10-24T18:16:08.698Z,70.55
2022-10-24T18:18:35.536Z,70.50
2022-10-24T18:21:23.912Z,69.45
2022-10-24T18:23:51.890Z,70.51
2022-10-24T18:26:21.683Z,70.21
2022-10-24T18:28:50.492Z,70.24
2022-10-24T18:31:19.679Z,70.15
2022-10-24T18:33:46.894Z,70.19
2022-10-24T18:36:17.039Z,69.86
2022-10-24T18:38:43.935Z,70.12
2022-10-24T18:41:28.988Z,69.04
2022-10-24T18:43:57.346Z,69.90
2022-10-24T18:46:24.684Z,70.11
2022-10-24T18:48:52.045Z,70.24
2022-10-24T18:51:29.782Z,69.44
2022-10-24T18:54:00.276Z,70.11
2022-10-24T18:56:26.927Z,70.02
2022-10-24T18:58:53.501Z,70.22
2022-10-24T19:01:28.501Z,69.75
2022-10-24T19:03:58.272Z,69.96
2022-10-24T19:06:27.689Z,70.57
2022-10-24T19:08:54.259Z,70.47
2022-10-24T19:11:20.987Z,70.72
2022-10-24T19:13:47.690Z,70.62
2022-10-24T19:16:24.110Z,69.88
2022-10-24T19:18:57.628Z,70.16
2022-10-24T19:21:24.436Z,70.80
2022-10-24T19:23:51.081Z,70.52
2022-10-24T19:26:17.575Z,70.46
2022-10-24T19:28:44.201Z,70.31
2022-10-24T19:31:10.812Z,70.42
2022-10-24T19:33:37.326Z,70.43
2022-10-24T19:36:05.410Z,70.19
2022-10-24T19:38:32.076Z,70.22
2022-10-24T19:40:58.788Z,70.09
2022-10-24T19:43:29.425Z,69.93
2022-10-24T19:48:42.953Z,70.13
2022-10-24T19:51:11.995Z,70.01
2022-10-24T19:53:40.724Z,70.25
2022-10-24T19:56:12.937Z,69.89
2022-10-24T19:58:40.335Z,70.77
2022-10-24T20:01:12.117Z,70.05
2022-10-24T20:03:44.812Z,70.19
2022-10-24T20:06:11.888Z,70.83
2022-10-24T20:08:39.001Z,70.80
2022-10-24T20:11:06.427Z,70.61
2022-10-24T20:13:33.427Z,70.74
2022-10-24T20:16:02.262Z,70.55
2022-10-24T20:18:30.186Z,70.52
2022-10-24T20:20:56.927Z,70.63
2022-10-24T20:23:24.868Z,70.52
2022-10-24T20:26:01.189Z,70.04
2022-10-24T20:28:28.269Z,70.53
2022-10-24T20:30:55.636Z,70.33
2022-10-24T20:33:22.453Z,70.37
2022-10-24T20:35:48.965Z,70.43
2022-10-24T20:38:15.504Z,70.33
2022-10-24T20:40:42.053Z,70.35
2022-10-24T20:43:08.617Z,70.39
2022-10-24T20:45:39.799Z,69.88
2022-10-24T20:48:06.537Z,70.46
2022-10-24T20:50:33.021Z,70.46
2022-10-24T20:52:59.544Z,70.65
2022-10-24T20:55:39.532Z,70.67
2022-10-24T20:58:14.177Z,70.16
2022-10-24T21:03:27.457Z,70.63
2022-10-24T21:05:53.941Z,70.61
2022-10-24T21:08:20.375Z,70.52
2022-10-24T21:10:46.861Z,70.14
2022-10-24T21:13:13.376Z,70.15
2022-10-24T21:15:39.841Z,70.13
2022-10-24T21:18:06.467Z,70.03
2022-10-24T21:20:32.956Z,69.89
2022-10-24T21:22:59.528Z,70.17
2022-10-24T21:25:26.047Z,70.26
2022-10-24T21:27:52.659Z,70.29
2022-10-24T21:30:19.138Z,70.26
2022-10-24T21:32:45.893Z,70.30
2022-10-24T21:35:12.366Z,70.33
2022-10-24T21:37:38.966Z,70.70
2022-10-24T21:40:05.888Z,70.64
2022-10-24T21:42:32.416Z,70.66
2022-10-24T21:44:59.014Z,70.66
2022-10-24T21:47:25.534Z,70.86
2022-10-24T21:49:52.016Z,70.90
2022-10-24T21:52:18.541Z,70.60
2022-10-24T21:54:45.069Z,70.56
2022-10-24T21:57:11.585Z,70.58
2022-10-24T21:59:38.175Z,70.68
2022-10-24T22:02:04.802Z,70.43
2022-10-24T22:04:31.415Z,70.49
2022-10-24T22:06:57.867Z,70.46
2022-10-24T22:09:24.453Z,70.50
2022-10-24T22:11:51.015Z,70.36
2022-10-24T22:14:18.486Z,70.37
2022-10-24T22:16:45.335Z,70.77
2022-10-24T22:19:13.197Z,70.60
2022-10-24T22:21:45.869Z,69.64
2022-10-24T22:24:18.177Z,69.65
2022-10-24T22:26:44.748Z,70.48
2022-10-24T22:29:14.272Z,69.87
2022-10-24T22:31:41.118Z,70.25
2022-10-24T22:34:08.333Z,70.10
2022-10-24T22:37:05.763Z,69.09
2022-10-24T22:39:32.711Z,69.96
2022-10-24T22:41:59.466Z,69.70
2022-10-24T22:44:26.265Z,69.45
2022-10-24T22:47:21.577Z,68.42
2022-10-24T22:49:54.236Z,68.36
2022-10-24T22:52:21.072Z,68.86
2022-10-24T22:54:47.827Z,68.75
2022-10-24T22:57:14.667Z,68.47
2022-10-24T22:59:41.498Z,68.60
2022-10-24T23:02:33.460Z,67.82
2022-10-24T23:05:43.169Z,68.24
2022-10-24T23:08:20.744Z,68.73
2022-10-24T23:10:47.711Z,68.94
2022-10-24T23:13:14.411Z,69.15
2022-10-24T23:15:41.150Z,69.09
2022-10-24T23:18:09.730Z,69.00
2022-10-24T23:20:42.768Z,69.03
2022-10-24T23:23:28.129Z,69.05
2022-10-24T23:26:19.376Z,69.03
2022-10-24T23:28:52.509Z,69.23
2022-10-24T23:31:19.353Z,69.48
2022-10-24T23:33:46.241Z,69.24
2022-10-24T23:36:20.285Z,68.66
2022-10-24T23:38:47.672Z,69.17
2022-10-24T23:41:14.752Z,69.19
2022-10-24T23:43:41.476Z,69.09
2022-10-24T23:46:34.388Z,68.52
2022-10-24T23:49:19.398Z,69.12
2022-10-24T23:52:19.127Z,68.62
2022-10-24T23:54:46.180Z,69.26
2022-10-24T23:57:19.138Z,68.99
2022-10-24T23:59:45.805Z,69.31
